sensor_id;sensor_type;location;lat;lon;timestamp;P1;durP1;ratioP1;P2;durP2;ratioP2
64682;SDS011;51107;47.652;19.016;2024-02-26T00:01:39;18.95;;;7.45;;
64682;SDS011;51107;47.652;19.016;2024-02-26T00:04:08;15.93;;;7.68;;
64682;SDS011;51107;47.652;19.016;2024-02-26T00:06:37;28.23;;;8.95;;
64682;SDS011;51107;47.652;19.016;2024-02-26T00:09:09;17.08;;;7.78;;
64682;SDS011;51107;47.652;19.016;2024-02-26T00:11:37;17.75;;;8.05;;
64682;SDS011;51107;47.652;19.016;2024-02-26T00:14:05;18.08;;;7.10;;
64682;SDS011;51107;47.652;19.016;2024-02-26T00:16:34;19.35;;;8.98;;
64682;SDS011;51107;47.652;19.016;2024-02-26T00:19:02;17.50;;;8.02;;
64682;SDS011;51107;47.652;19.016;2024-02-26T00:21:30;13.95;;;6.55;;
64682;SDS011;51107;47.652;19.016;2024-02-26T00:23:58;15.20;;;6.93;;
64682;SDS011;51107;47.652;19.016;2024-02-26T00:26:26;12.73;;;7.05;;
64682;SDS011;51107;47.652;19.016;2024-02-26T00:28:54;13.52;;;6.57;;
64682;SDS011;51107;47.652;19.016;2024-02-26T00:31:22;18.42;;;6.55;;
64682;SDS011;51107;47.652;19.016;2024-02-26T00:33:50;14.40;;;6.78;;
64682;SDS011;51107;47.652;19.016;2024-02-26T00:36:19;16.33;;;6.15;;
64682;SDS011;51107;47.652;19.016;2024-02-26T00:38:47;16.45;;;7.53;;
64682;SDS011;51107;47.652;19.016;2024-02-26T00:41:18;16.48;;;6.72;;
64682;SDS011;51107;47.652;19.016;2024-02-26T00:43:47;16.02;;;7.10;;
64682;SDS011;51107;47.652;19.016;2024-02-26T00:46:15;13.70;;;6.57;;
64682;SDS011;51107;47.652;19.016;2024-02-26T00:48:43;19.58;;;7.45;;
64682;SDS011;51107;47.652;19.016;2024-02-26T00:51:12;14.80;;;7.25;;
64682;SDS011;51107;47.652;19.016;2024-02-26T00:53:40;15.35;;;7.53;;
64682;SDS011;51107;47.652;19.016;2024-02-26T00:56:08;15.20;;;6.62;;
64682;SDS011;51107;47.652;19.016;2024-02-26T00:58:36;12.45;;;5.57;;
64682;SDS011;51107;47.652;19.016;2024-02-26T01:01:04;13.07;;;6.72;;
64682;SDS011;51107;47.652;19.016;2024-02-26T01:03:32;9.75;;;5.93;;
64682;SDS011;51107;47.652;19.016;2024-02-26T01:06:01;11.73;;;5.70;;
64682;SDS011;51107;47.652;19.016;2024-02-26T01:08:29;15.93;;;6.35;;
64682;SDS011;51107;47.652;19.016;2024-02-26T01:10:59;10.73;;;6.15;;
64682;SDS011;51107;47.652;19.016;2024-02-26T01:13:27;15.15;;;6.85;;
64682;SDS011;51107;47.652;19.016;2024-02-26T01:15:55;12.95;;;5.78;;
64682;SDS011;51107;47.652;19.016;2024-02-26T01:18:23;12.52;;;6.15;;
64682;SDS011;51107;47.652;19.016;2024-02-26T01:20:51;11.50;;;6.32;;
64682;SDS011;51107;47.652;19.016;2024-02-26T01:23:22;10.23;;;5.07;;
64682;SDS011;51107;47.652;19.016;2024-02-26T01:25:49;13.07;;;5.55;;
64682;SDS011;51107;47.652;19.016;2024-02-26T01:28:18;9.05;;;4.65;;
64682;SDS011;51107;47.652;19.016;2024-02-26T01:30:46;6.95;;;4.15;;
64682;SDS011;51107;47.652;19.016;2024-02-26T01:33:14;7.57;;;3.95;;
64682;SDS011;51107;47.652;19.016;2024-02-26T01:35:42;9.30;;;4.85;;
64682;SDS011;51107;47.652;19.016;2024-02-26T01:38:10;9.13;;;4.75;;
64682;SDS011;51107;47.652;19.016;2024-02-26T01:40:38;11.73;;;5.43;;
64682;SDS011;51107;47.652;19.016;2024-02-26T01:43:06;10.98;;;4.72;;
64682;SDS011;51107;47.652;19.016;2024-02-26T01:45:35;9.40;;;4.85;;
64682;SDS011;51107;47.652;19.016;2024-02-26T01:48:03;11.48;;;4.85;;
64682;SDS011;51107;47.652;19.016;2024-02-26T01:50:31;11.20;;;5.12;;
64682;SDS011;51107;47.652;19.016;2024-02-26T01:53:02;11.60;;;5.00;;
64682;SDS011;51107;47.652;19.016;2024-02-26T01:55:29;10.18;;;5.10;;
64682;SDS011;51107;47.652;19.016;2024-02-26T01:57:58;12.40;;;5.30;;
64682;SDS011;51107;47.652;19.016;2024-02-26T02:00:27;8.60;;;4.28;;
64682;SDS011;51107;47.652;19.016;2024-02-26T02:02:55;8.80;;;4.80;;
64682;SDS011;51107;47.652;19.016;2024-02-26T02:05:24;12.40;;;4.30;;
64682;SDS011;51107;47.652;19.016;2024-02-26T02:07:53;8.98;;;4.18;;
64682;SDS011;51107;47.652;19.016;2024-02-26T02:10:21;9.38;;;4.57;;
64682;SDS011;51107;47.652;19.016;2024-02-26T02:12:53;9.13;;;4.53;;
64682;SDS011;51107;47.652;19.016;2024-02-26T02:15:21;11.38;;;5.22;;
64682;SDS011;51107;47.652;19.016;2024-02-26T02:17:49;9.43;;;5.10;;
64682;SDS011;51107;47.652;19.016;2024-02-26T02:20:18;8.85;;;4.60;;
64682;SDS011;51107;47.652;19.016;2024-02-26T02:22:47;11.25;;;4.75;;
64682;SDS011;51107;47.652;19.016;2024-02-26T02:25:15;10.30;;;4.57;;
64682;SDS011;51107;47.652;19.016;2024-02-26T02:27:43;8.98;;;4.43;;
64682;SDS011;51107;47.652;19.016;2024-02-26T02:30:11;11.60;;;4.70;;
64682;SDS011;51107;47.652;19.016;2024-02-26T02:32:39;9.82;;;5.62;;
64682;SDS011;51107;47.652;19.016;2024-02-26T02:35:09;7.32;;;4.28;;
64682;SDS011;51107;47.652;19.016;2024-02-26T02:37:37;8.82;;;4.15;;
64682;SDS011;51107;47.652;19.016;2024-02-26T02:40:06;11.55;;;4.82;;
64682;SDS011;51107;47.652;19.016;2024-02-26T02:42:34;12.07;;;5.25;;
64682;SDS011;51107;47.652;19.016;2024-02-26T02:45:02;9.10;;;4.53;;
64682;SDS011;51107;47.652;19.016;2024-02-26T02:47:31;11.48;;;5.10;;
64682;SDS011;51107;47.652;19.016;2024-02-26T02:49:59;10.85;;;4.90;;
64682;SDS011;51107;47.652;19.016;2024-02-26T02:52:27;9.15;;;5.03;;
64682;SDS011;51107;47.652;19.016;2024-02-26T02:54:55;9.20;;;4.60;;
64682;SDS011;51107;47.652;19.016;2024-02-26T02:57:23;15.20;;;5.72;;
64682;SDS011;51107;47.652;19.016;2024-02-26T02:59:52;9.35;;;4.80;;
64682;SDS011;51107;47.652;19.016;2024-02-26T03:02:20;8.30;;;4.28;;
64682;SDS011;51107;47.652;19.016;2024-02-26T03:04:48;12.32;;;5.12;;
64682;SDS011;51107;47.652;19.016;2024-02-26T03:07:16;13.27;;;5.50;;
64682;SDS011;51107;47.652;19.016;2024-02-26T03:09:44;11.88;;;4.40;;
64682;SDS011;51107;47.652;19.016;2024-02-26T03:12:12;12.43;;;5.05;;
64682;SDS011;51107;47.652;19.016;2024-02-26T03:14:40;11.10;;;5.18;;
64682;SDS011;51107;47.652;19.016;2024-02-26T03:17:09;10.10;;;4.60;;
64682;SDS011;51107;47.652;19.016;2024-02-26T03:19:37;12.93;;;4.62;;
64682;SDS011;51107;47.652;19.016;2024-02-26T03:22:05;10.77;;;5.20;;
64682;SDS011;51107;47.652;19.016;2024-02-26T03:24:33;8.52;;;4.50;;
64682;SDS011;51107;47.652;19.016;2024-02-26T03:27:01;9.77;;;4.53;;
64682;SDS011;51107;47.652;19.016;2024-02-26T03:29:29;9.82;;;4.40;;
64682;SDS011;51107;47.652;19.016;2024-02-26T03:31:57;9.88;;;4.50;;
64682;SDS011;51107;47.652;19.016;2024-02-26T03:34:25;9.57;;;4.95;;
64682;SDS011;51107;47.652;19.016;2024-02-26T03:36:54;8.25;;;4.28;;
64682;SDS011;51107;47.652;19.016;2024-02-26T03:39:22;10.10;;;4.82;;
64682;SDS011;51107;47.652;19.016;2024-02-26T03:41:50;9.93;;;4.65;;
64682;SDS011;51107;47.652;19.016;2024-02-26T03:44:18;9.63;;;4.55;;
64682;SDS011;51107;47.652;19.016;2024-02-26T03:46:46;13.02;;;4.72;;
64682;SDS011;51107;47.652;19.016;2024-02-26T03:49:15;7.68;;;4.12;;
64682;SDS011;51107;47.652;19.016;2024-02-26T03:51:44;9.00;;;3.83;;
64682;SDS011;51107;47.652;19.016;2024-02-26T03:54:12;11.57;;;4.05;;
64682;SDS011;51107;47.652;19.016;2024-02-26T03:56:40;8.80;;;4.10;;
64682;SDS011;51107;47.652;19.016;2024-02-26T03:59:08;8.00;;;3.92;;
64682;SDS011;51107;47.652;19.016;2024-02-26T04:01:36;8.85;;;4.32;;
64682;SDS011;51107;47.652;19.016;2024-02-26T04:04:04;9.93;;;4.05;;
64682;SDS011;51107;47.652;19.016;2024-02-26T04:06:33;9.75;;;4.00;;
64682;SDS011;51107;47.652;19.016;2024-02-26T04:09:01;8.45;;;3.75;;
64682;SDS011;51107;47.652;19.016;2024-02-26T04:11:31;8.32;;;3.90;;
64682;SDS011;51107;47.652;19.016;2024-02-26T04:13:59;5.97;;;3.60;;
64682;SDS011;51107;47.652;19.016;2024-02-26T04:16:27;9.10;;;4.35;;
64682;SDS011;51107;47.652;19.016;2024-02-26T04:18:55;9.32;;;4.22;;
64682;SDS011;51107;47.652;19.016;2024-02-26T04:21:23;8.63;;;4.12;;
64682;SDS011;51107;47.652;19.016;2024-02-26T04:23:51;12.40;;;3.45;;
64682;SDS011;51107;47.652;19.016;2024-02-26T04:26:22;10.35;;;4.00;;
64682;SDS011;51107;47.652;19.016;2024-02-26T04:28:50;10.40;;;3.58;;
64682;SDS011;51107;47.652;19.016;2024-02-26T04:31:18;5.87;;;3.62;;
64682;SDS011;51107;47.652;19.016;2024-02-26T04:33:46;6.65;;;3.78;;
64682;SDS011;51107;47.652;19.016;2024-02-26T04:36:15;8.52;;;4.12;;
64682;SDS011;51107;47.652;19.016;2024-02-26T04:38:44;10.48;;;3.83;;
64682;SDS011;51107;47.652;19.016;2024-02-26T04:41:12;6.87;;;3.25;;
64682;SDS011;51107;47.652;19.016;2024-02-26T04:43:40;8.15;;;3.75;;
64682;SDS011;51107;47.652;19.016;2024-02-26T04:46:11;7.95;;;3.50;;
64682;SDS011;51107;47.652;19.016;2024-02-26T04:48:39;6.47;;;3.80;;
64682;SDS011;51107;47.652;19.016;2024-02-26T04:51:10;7.18;;;4.15;;
64682;SDS011;51107;47.652;19.016;2024-02-26T04:53:38;9.30;;;4.70;;
64682;SDS011;51107;47.652;19.016;2024-02-26T04:56:06;8.82;;;3.92;;
64682;SDS011;51107;47.652;19.016;2024-02-26T04:58:34;8.15;;;3.58;;
64682;SDS011;51107;47.652;19.016;2024-02-26T05:01:02;10.00;;;4.40;;
64682;SDS011;51107;47.652;19.016;2024-02-26T05:03:31;7.78;;;3.92;;
64682;SDS011;51107;47.652;19.016;2024-02-26T05:06:03;9.25;;;4.47;;
64682;SDS011;51107;47.652;19.016;2024-02-26T05:08:33;7.10;;;3.53;;
64682;SDS011;51107;47.652;19.016;2024-02-26T05:11:03;6.62;;;3.42;;
64682;SDS011;51107;47.652;19.016;2024-02-26T05:13:32;7.50;;;3.20;;
64682;SDS011;51107;47.652;19.016;2024-02-26T05:16:00;8.43;;;3.20;;
64682;SDS011;51107;47.652;19.016;2024-02-26T05:18:28;8.38;;;3.97;;
64682;SDS011;51107;47.652;19.016;2024-02-26T05:20:57;8.45;;;3.90;;
64682;SDS011;51107;47.652;19.016;2024-02-26T05:23:25;10.23;;;3.97;;
64682;SDS011;51107;47.652;19.016;2024-02-26T05:25:54;6.50;;;3.40;;
64682;SDS011;51107;47.652;19.016;2024-02-26T05:28:22;8.48;;;3.50;;
64682;SDS011;51107;47.652;19.016;2024-02-26T05:30:50;7.57;;;3.45;;
64682;SDS011;51107;47.652;19.016;2024-02-26T05:33:19;7.25;;;3.15;;
64682;SDS011;51107;47.652;19.016;2024-02-26T05:35:47;6.68;;;3.25;;
64682;SDS011;51107;47.652;19.016;2024-02-26T05:38:15;8.50;;;3.62;;
64682;SDS011;51107;47.652;19.016;2024-02-26T05:40:43;9.50;;;3.20;;
64682;SDS011;51107;47.652;19.016;2024-02-26T05:43:13;8.43;;;4.15;;
64682;SDS011;51107;47.652;19.016;2024-02-26T05:45:43;14.00;;;3.80;;
64682;SDS011;51107;47.652;19.016;2024-02-26T05:48:11;7.05;;;3.37;;
64682;SDS011;51107;47.652;19.016;2024-02-26T05:50:39;8.77;;;4.10;;
64682;SDS011;51107;47.652;19.016;2024-02-26T05:53:09;10.27;;;4.28;;
64682;SDS011;51107;47.652;19.016;2024-02-26T05:55:37;8.95;;;3.00;;
64682;SDS011;51107;47.652;19.016;2024-02-26T05:58:05;12.25;;;4.37;;
64682;SDS011;51107;47.652;19.016;2024-02-26T06:00:33;7.60;;;3.85;;
64682;SDS011;51107;47.652;19.016;2024-02-26T06:03:02;10.32;;;4.65;;
64682;SDS011;51107;47.652;19.016;2024-02-26T06:05:31;9.65;;;4.22;;
64682;SDS011;51107;47.652;19.016;2024-02-26T06:07:59;8.05;;;3.95;;
64682;SDS011;51107;47.652;19.016;2024-02-26T06:10:27;8.43;;;4.05;;
64682;SDS011;51107;47.652;19.016;2024-02-26T06:12:55;9.30;;;4.07;;
64682;SDS011;51107;47.652;19.016;2024-02-26T06:15:23;9.20;;;3.67;;
64682;SDS011;51107;47.652;19.016;2024-02-26T06:17:52;9.63;;;4.55;;
64682;SDS011;51107;47.652;19.016;2024-02-26T06:20:20;6.57;;;3.58;;
64682;SDS011;51107;47.652;19.016;2024-02-26T06:22:48;11.55;;;4.10;;
64682;SDS011;51107;47.652;19.016;2024-02-26T06:25:16;12.93;;;3.67;;
64682;SDS011;51107;47.652;19.016;2024-02-26T06:27:44;6.45;;;3.70;;
64682;SDS011;51107;47.652;19.016;2024-02-26T06:30:12;11.18;;;4.10;;
64682;SDS011;51107;47.652;19.016;2024-02-26T06:32:41;6.57;;;3.53;;
64682;SDS011;51107;47.652;19.016;2024-02-26T06:35:09;9.13;;;3.95;;
64682;SDS011;51107;47.652;19.016;2024-02-26T06:37:39;6.47;;;3.25;;
64682;SDS011;51107;47.652;19.016;2024-02-26T06:40:07;16.33;;;4.10;;
64682;SDS011;51107;47.652;19.016;2024-02-26T06:42:36;6.40;;;3.42;;
64682;SDS011;51107;47.652;19.016;2024-02-26T06:45:04;5.62;;;3.40;;
64682;SDS011;51107;47.652;19.016;2024-02-26T06:47:33;9.55;;;3.65;;
64682;SDS011;51107;47.652;19.016;2024-02-26T06:50:01;8.93;;;3.25;;
64682;SDS011;51107;47.652;19.016;2024-02-26T06:52:29;9.98;;;3.50;;
64682;SDS011;51107;47.652;19.016;2024-02-26T06:54:58;10.45;;;3.40;;
64682;SDS011;51107;47.652;19.016;2024-02-26T06:57:26;11.12;;;4.37;;
64682;SDS011;51107;47.652;19.016;2024-02-26T06:59:54;8.32;;;4.28;;
64682;SDS011;51107;47.652;19.016;2024-02-26T07:02:22;8.50;;;3.60;;
64682;SDS011;51107;47.652;19.016;2024-02-26T07:04:50;10.27;;;3.90;;
64682;SDS011;51107;47.652;19.016;2024-02-26T07:07:18;13.45;;;4.47;;
64682;SDS011;51107;47.652;19.016;2024-02-26T07:09:47;9.13;;;4.35;;
64682;SDS011;51107;47.652;19.016;2024-02-26T07:12:15;11.45;;;4.87;;
64682;SDS011;51107;47.652;19.016;2024-02-26T07:14:44;9.85;;;4.12;;
64682;SDS011;51107;47.652;19.016;2024-02-26T07:17:12;8.55;;;3.62;;
64682;SDS011;51107;47.652;19.016;2024-02-26T07:19:40;9.55;;;3.92;;
64682;SDS011;51107;47.652;19.016;2024-02-26T07:22:08;10.25;;;3.15;;
64682;SDS011;51107;47.652;19.016;2024-02-26T07:24:36;8.75;;;3.72;;
64682;SDS011;51107;47.652;19.016;2024-02-26T07:27:04;10.05;;;3.53;;
64682;SDS011;51107;47.652;19.016;2024-02-26T07:29:32;7.70;;;4.25;;
64682;SDS011;51107;47.652;19.016;2024-02-26T07:32:01;11.98;;;4.45;;
64682;SDS011;51107;47.652;19.016;2024-02-26T07:34:29;7.62;;;3.60;;
64682;SDS011;51107;47.652;19.016;2024-02-26T07:36:57;7.10;;;3.60;;
64682;SDS011;51107;47.652;19.016;2024-02-26T07:39:26;12.98;;;5.03;;
64682;SDS011;51107;47.652;19.016;2024-02-26T07:41:54;9.38;;;3.65;;
64682;SDS011;51107;47.652;19.016;2024-02-26T07:44:22;14.32;;;5.12;;
64682;SDS011;51107;47.652;19.016;2024-02-26T07:46:50;8.05;;;3.95;;
64682;SDS011;51107;47.652;19.016;2024-02-26T07:49:18;7.82;;;4.28;;
64682;SDS011;51107;47.652;19.016;2024-02-26T07:51:46;9.30;;;4.30;;
64682;SDS011;51107;47.652;19.016;2024-02-26T07:54:15;14.13;;;5.53;;
64682;SDS011;51107;47.652;19.016;2024-02-26T07:56:44;11.65;;;5.07;;
64682;SDS011;51107;47.652;19.016;2024-02-26T07:59:12;11.50;;;4.95;;
64682;SDS011;51107;47.652;19.016;2024-02-26T08:01:41;11.75;;;4.95;;
64682;SDS011;51107;47.652;19.016;2024-02-26T08:04:10;13.75;;;6.03;;
64682;SDS011;51107;47.652;19.016;2024-02-26T08:06:38;11.30;;;5.25;;
64682;SDS011;51107;47.652;19.016;2024-02-26T08:09:06;11.93;;;4.40;;
64682;SDS011;51107;47.652;19.016;2024-02-26T08:11:35;14.05;;;5.40;;
64682;SDS011;51107;47.652;19.016;2024-02-26T08:14:03;11.43;;;5.18;;
64682;SDS011;51107;47.652;19.016;2024-02-26T08:16:31;14.65;;;5.45;;
64682;SDS011;51107;47.652;19.016;2024-02-26T08:19:02;15.02;;;5.53;;
64682;SDS011;51107;47.652;19.016;2024-02-26T08:21:30;12.60;;;5.30;;
64682;SDS011;51107;47.652;19.016;2024-02-26T08:23:58;13.73;;;4.62;;
64682;SDS011;51107;47.652;19.016;2024-02-26T08:26:27;11.23;;;5.12;;
64682;SDS011;51107;47.652;19.016;2024-02-26T08:28:55;14.02;;;5.22;;
64682;SDS011;51107;47.652;19.016;2024-02-26T08:31:23;14.52;;;6.12;;
64682;SDS011;51107;47.652;19.016;2024-02-26T08:33:51;15.95;;;6.85;;
64682;SDS011;51107;47.652;19.016;2024-02-26T08:36:20;13.77;;;6.30;;
64682;SDS011;51107;47.652;19.016;2024-02-26T08:38:48;16.87;;;6.87;;
64682;SDS011;51107;47.652;19.016;2024-02-26T08:41:16;13.23;;;6.45;;
64682;SDS011;51107;47.652;19.016;2024-02-26T08:43:44;14.57;;;6.32;;
64682;SDS011;51107;47.652;19.016;2024-02-26T08:46:13;17.23;;;6.62;;
64682;SDS011;51107;47.652;19.016;2024-02-26T08:48:41;18.50;;;6.93;;
64682;SDS011;51107;47.652;19.016;2024-02-26T08:51:10;16.65;;;7.60;;
64682;SDS011;51107;47.652;19.016;2024-02-26T08:53:38;13.98;;;7.30;;
64682;SDS011;51107;47.652;19.016;2024-02-26T08:56:11;16.83;;;7.20;;
64682;SDS011;51107;47.652;19.016;2024-02-26T08:58:45;16.00;;;7.35;;
64682;SDS011;51107;47.652;19.016;2024-02-26T09:01:16;14.32;;;7.00;;
64682;SDS011;51107;47.652;19.016;2024-02-26T09:03:45;15.30;;;5.80;;
64682;SDS011;51107;47.652;19.016;2024-02-26T09:06:14;15.07;;;7.25;;
64682;SDS011;51107;47.652;19.016;2024-02-26T09:08:43;17.60;;;6.85;;
64682;SDS011;51107;47.652;19.016;2024-02-26T09:11:11;19.33;;;8.07;;
64682;SDS011;51107;47.652;19.016;2024-02-26T09:13:39;18.17;;;7.22;;
64682;SDS011;51107;47.652;19.016;2024-02-26T09:16:08;15.10;;;6.60;;
64682;SDS011;51107;47.652;19.016;2024-02-26T09:18:36;16.02;;;8.07;;
64682;SDS011;51107;47.652;19.016;2024-02-26T09:21:04;17.90;;;7.93;;
64682;SDS011;51107;47.652;19.016;2024-02-26T09:23:34;18.23;;;7.90;;
64682;SDS011;51107;47.652;19.016;2024-02-26T09:26:02;18.80;;;7.35;;
64682;SDS011;51107;47.652;19.016;2024-02-26T09:28:33;21.90;;;8.23;;
64682;SDS011;51107;47.652;19.016;2024-02-26T09:31:05;16.05;;;7.18;;
64682;SDS011;51107;47.652;19.016;2024-02-26T09:33:34;18.83;;;8.90;;
64682;SDS011;51107;47.652;19.016;2024-02-26T09:36:04;14.13;;;7.15;;
64682;SDS011;51107;47.652;19.016;2024-02-26T09:38:34;17.95;;;7.95;;
64682;SDS011;51107;47.652;19.016;2024-02-26T09:41:19;16.25;;;7.62;;
64682;SDS011;51107;47.652;19.016;2024-02-26T09:43:48;24.05;;;8.10;;
64682;SDS011;51107;47.652;19.016;2024-02-26T09:46:23;17.58;;;7.30;;
64682;SDS011;51107;47.652;19.016;2024-02-26T09:48:53;16.15;;;7.87;;
64682;SDS011;51107;47.652;19.016;2024-02-26T09:51:22;17.90;;;7.90;;
64682;SDS011;51107;47.652;19.016;2024-02-26T09:53:54;21.45;;;7.75;;
64682;SDS011;51107;47.652;19.016;2024-02-26T09:56:24;19.90;;;8.57;;
64682;SDS011;51107;47.652;19.016;2024-02-26T09:58:53;15.50;;;7.87;;
64682;SDS011;51107;47.652;19.016;2024-02-26T10:01:24;16.52;;;7.78;;
64682;SDS011;51107;47.652;19.016;2024-02-26T10:03:56;16.73;;;8.57;;
64682;SDS011;51107;47.652;19.016;2024-02-26T10:06:26;22.15;;;7.85;;
64682;SDS011;51107;47.652;19.016;2024-02-26T10:08:55;16.60;;;8.25;;
64682;SDS011;51107;47.652;19.016;2024-02-26T10:11:26;18.30;;;8.07;;
64682;SDS011;51107;47.652;19.016;2024-02-26T10:13:55;19.37;;;8.82;;
64682;SDS011;51107;47.652;19.016;2024-02-26T10:16:24;15.63;;;8.38;;
64682;SDS011;51107;47.652;19.016;2024-02-26T10:18:53;18.08;;;8.63;;
64682;SDS011;51107;47.652;19.016;2024-02-26T10:21:29;15.27;;;8.07;;
64682;SDS011;51107;47.652;19.016;2024-02-26T10:23:57;17.65;;;8.18;;
64682;SDS011;51107;47.652;19.016;2024-02-26T10:26:25;17.52;;;8.40;;
64682;SDS011;51107;47.652;19.016;2024-02-26T10:28:53;16.48;;;8.35;;
64682;SDS011;51107;47.652;19.016;2024-02-26T10:31:28;17.52;;;8.25;;
64682;SDS011;51107;47.652;19.016;2024-02-26T10:33:57;21.40;;;9.48;;
64682;SDS011;51107;47.652;19.016;2024-02-26T10:36:29;19.05;;;7.82;;
64682;SDS011;51107;47.652;19.016;2024-02-26T10:39:15;19.30;;;8.48;;
64682;SDS011;51107;47.652;19.016;2024-02-26T10:41:44;17.25;;;8.35;;
64682;SDS011;51107;47.652;19.016;2024-02-26T10:44:13;20.15;;;9.18;;
64682;SDS011;51107;47.652;19.016;2024-02-26T10:46:48;19.90;;;8.18;;
64682;SDS011;51107;47.652;19.016;2024-02-26T10:49:21;19.80;;;8.63;;
64682;SDS011;51107;47.652;19.016;2024-02-26T10:51:55;16.50;;;8.85;;
64682;SDS011;51107;47.652;19.016;2024-02-26T10:54:25;21.30;;;8.82;;
64682;SDS011;51107;47.652;19.016;2024-02-26T10:56:57;20.00;;;9.40;;
64682;SDS011;51107;47.652;19.016;2024-02-26T10:59:27;23.05;;;10.77;;
64682;SDS011;51107;47.652;19.016;2024-02-26T11:01:57;20.42;;;8.57;;
64682;SDS011;51107;47.652;19.016;2024-02-26T11:04:26;18.70;;;9.00;;
64682;SDS011;51107;47.652;19.016;2024-02-26T11:06:59;20.40;;;8.73;;
64682;SDS011;51107;47.652;19.016;2024-02-26T11:09:29;17.87;;;8.65;;
64682;SDS011;51107;47.652;19.016;2024-02-26T11:11:58;16.73;;;8.10;;
64682;SDS011;51107;47.652;19.016;2024-02-26T11:14:27;22.52;;;8.85;;
64682;SDS011;51107;47.652;19.016;2024-02-26T11:16:57;14.50;;;7.65;;
64682;SDS011;51107;47.652;19.016;2024-02-26T11:19:26;20.83;;;9.20;;
64682;SDS011;51107;47.652;19.016;2024-02-26T11:21:55;17.65;;;8.98;;
64682;SDS011;51107;47.652;19.016;2024-02-26T11:24:26;17.15;;;8.38;;
64682;SDS011;51107;47.652;19.016;2024-02-26T11:26:55;16.70;;;8.20;;
64682;SDS011;51107;47.652;19.016;2024-02-26T11:29:39;16.50;;;8.00;;
64682;SDS011;51107;47.652;19.016;2024-02-26T11:32:11;20.48;;;9.05;;
64682;SDS011;51107;47.652;19.016;2024-02-26T11:34:39;17.83;;;7.82;;
64682;SDS011;51107;47.652;19.016;2024-02-26T11:37:11;18.25;;;6.45;;
64682;SDS011;51107;47.652;19.016;2024-02-26T11:39:41;16.98;;;7.00;;
64682;SDS011;51107;47.652;19.016;2024-02-26T11:42:15;12.57;;;6.03;;
64682;SDS011;51107;47.652;19.016;2024-02-26T11:44:44;12.30;;;6.80;;
64682;SDS011;51107;47.652;19.016;2024-02-26T11:47:19;18.15;;;7.28;;
64682;SDS011;51107;47.652;19.016;2024-02-26T11:49:49;13.70;;;7.03;;
64682;SDS011;51107;47.652;19.016;2024-02-26T11:52:17;14.85;;;6.10;;
64682;SDS011;51107;47.652;19.016;2024-02-26T11:54:47;13.48;;;6.18;;
64682;SDS011;51107;47.652;19.016;2024-02-26T11:57:28;10.57;;;5.97;;
64682;SDS011;51107;47.652;19.016;2024-02-26T12:02:45;12.18;;;6.43;;
64682;SDS011;51107;47.652;19.016;2024-02-26T12:05:16;10.35;;;5.35;;
64682;SDS011;51107;47.652;19.016;2024-02-26T12:07:53;11.95;;;6.50;;
64682;SDS011;51107;47.652;19.016;2024-02-26T12:10:26;12.02;;;5.97;;
64682;SDS011;51107;47.652;19.016;2024-02-26T12:13:02;12.18;;;6.20;;
64682;SDS011;51107;47.652;19.016;2024-02-26T12:15:38;11.95;;;5.80;;
64682;SDS011;51107;47.652;19.016;2024-02-26T12:18:09;11.75;;;6.25;;
64682;SDS011;51107;47.652;19.016;2024-02-26T12:20:43;12.43;;;6.45;;
64682;SDS011;51107;47.652;19.016;2024-02-26T12:23:15;12.60;;;5.53;;
64682;SDS011;51107;47.652;19.016;2024-02-26T12:25:44;13.70;;;6.15;;
64682;SDS011;51107;47.652;19.016;2024-02-26T12:28:15;18.58;;;6.62;;
64682;SDS011;51107;47.652;19.016;2024-02-26T12:30:43;13.55;;;6.97;;
64682;SDS011;51107;47.652;19.016;2024-02-26T12:33:11;11.65;;;5.85;;
64682;SDS011;51107;47.652;19.016;2024-02-26T12:35:41;12.40;;;6.10;;
64682;SDS011;51107;47.652;19.016;2024-02-26T12:38:08;12.75;;;6.55;;
64682;SDS011;51107;47.652;19.016;2024-02-26T12:40:37;11.00;;;5.62;;
64682;SDS011;51107;47.652;19.016;2024-02-26T12:43:05;12.13;;;5.68;;
64682;SDS011;51107;47.652;19.016;2024-02-26T12:45:34;15.50;;;6.62;;
64682;SDS011;51107;47.652;19.016;2024-02-26T12:48:02;12.85;;;5.35;;
64682;SDS011;51107;47.652;19.016;2024-02-26T12:50:33;21.92;;;5.65;;
64682;SDS011;51107;47.652;19.016;2024-02-26T12:53:02;12.18;;;4.55;;
64682;SDS011;51107;47.652;19.016;2024-02-26T12:55:30;9.52;;;4.28;;
64682;SDS011;51107;47.652;19.016;2024-02-26T12:58:02;9.32;;;4.50;;
64682;SDS011;51107;47.652;19.016;2024-02-26T13:00:30;8.23;;;4.45;;
64682;SDS011;51107;47.652;19.016;2024-02-26T13:02:59;7.80;;;4.35;;
64682;SDS011;51107;47.652;19.016;2024-02-26T13:05:28;7.82;;;4.47;;
64682;SDS011;51107;47.652;19.016;2024-02-26T13:07:56;8.05;;;4.30;;
64682;SDS011;51107;47.652;19.016;2024-02-26T13:10:24;7.55;;;4.22;;
64682;SDS011;51107;47.652;19.016;2024-02-26T13:12:53;7.40;;;3.65;;
64682;SDS011;51107;47.652;19.016;2024-02-26T13:15:21;10.02;;;3.83;;
64682;SDS011;51107;47.652;19.016;2024-02-26T13:17:50;6.70;;;3.45;;
64682;SDS011;51107;47.652;19.016;2024-02-26T13:20:29;5.32;;;3.33;;
64682;SDS011;51107;47.652;19.016;2024-02-26T13:23:05;6.82;;;3.65;;
64682;SDS011;51107;47.652;19.016;2024-02-26T13:25:35;6.43;;;3.55;;
64682;SDS011;51107;47.652;19.016;2024-02-26T13:30:52;6.75;;;3.50;;
64682;SDS011;51107;47.652;19.016;2024-02-26T13:33:21;7.87;;;4.22;;
64682;SDS011;51107;47.652;19.016;2024-02-26T13:35:50;6.20;;;3.35;;
64682;SDS011;51107;47.652;19.016;2024-02-26T13:38:20;5.07;;;3.12;;
64682;SDS011;51107;47.652;19.016;2024-02-26T13:40:48;5.30;;;2.42;;
64682;SDS011;51107;47.652;19.016;2024-02-26T13:43:18;5.40;;;2.58;;
64682;SDS011;51107;47.652;19.016;2024-02-26T13:45:47;5.47;;;2.72;;
64682;SDS011;51107;47.652;19.016;2024-02-26T13:48:15;4.05;;;2.10;;
64682;SDS011;51107;47.652;19.016;2024-02-26T13:50:44;4.32;;;2.42;;
64682;SDS011;51107;47.652;19.016;2024-02-26T13:53:13;2.97;;;1.90;;
64682;SDS011;51107;47.652;19.016;2024-02-26T13:55:42;3.15;;;1.80;;
64682;SDS011;51107;47.652;19.016;2024-02-26T13:58:12;4.97;;;2.22;;
64682;SDS011;51107;47.652;19.016;2024-02-26T14:00:42;3.08;;;1.83;;
64682;SDS011;51107;47.652;19.016;2024-02-26T14:03:11;6.43;;;1.83;;
64682;SDS011;51107;47.652;19.016;2024-02-26T14:05:40;3.17;;;1.60;;
64682;SDS011;51107;47.652;19.016;2024-02-26T14:08:13;1.92;;;1.30;;
64682;SDS011;51107;47.652;19.016;2024-02-26T14:10:41;2.30;;;1.50;;
64682;SDS011;51107;47.652;19.016;2024-02-26T14:13:09;2.58;;;1.70;;
64682;SDS011;51107;47.652;19.016;2024-02-26T14:15:37;3.58;;;1.45;;
64682;SDS011;51107;47.652;19.016;2024-02-26T14:18:07;2.55;;;1.73;;
64682;SDS011;51107;47.652;19.016;2024-02-26T14:20:36;3.40;;;1.90;;
64682;SDS011;51107;47.652;19.016;2024-02-26T14:23:04;3.58;;;1.98;;
64682;SDS011;51107;47.652;19.016;2024-02-26T14:25:33;2.50;;;1.70;;
64682;SDS011;51107;47.652;19.016;2024-02-26T14:28:01;5.22;;;2.33;;
64682;SDS011;51107;47.652;19.016;2024-02-26T14:30:29;3.90;;;2.35;;
64682;SDS011;51107;47.652;19.016;2024-02-26T14:32:57;3.87;;;1.92;;
64682;SDS011;51107;47.652;19.016;2024-02-26T14:35:25;5.82;;;3.03;;
64682;SDS011;51107;47.652;19.016;2024-02-26T14:37:54;3.78;;;2.40;;
64682;SDS011;51107;47.652;19.016;2024-02-26T14:40:22;3.65;;;2.40;;
64682;SDS011;51107;47.652;19.016;2024-02-26T14:42:50;5.43;;;3.20;;